sensor_id;sensor_type;location;lat;lon;timestamp;P1;durP1;ratioP1;P2;durP2;ratioP2
74269;SDS011;62754;48.252;11.654;2023-02-28T00:01:19;5.07;;;2.53;;
74269;SDS011;62754;48.252;11.654;2023-02-28T00:03:45;5.78;;;2.42;;
74269;SDS011;62754;48.252;11.654;2023-02-28T00:06:11;4.28;;;2.20;;
74269;SDS011;62754;48.252;11.654;2023-02-28T00:08:37;4.88;;;2.60;;
74269;SDS011;62754;48.252;11.654;2023-02-28T00:11:05;5.85;;;2.70;;
74269;SDS011;62754;48.252;11.654;2023-02-28T00:13:34;4.93;;;2.38;;
74269;SDS011;62754;48.252;11.654;2023-02-28T00:16:03;4.22;;;2.25;;
74269;SDS011;62754;48.252;11.654;2023-02-28T00:18:32;4.43;;;2.45;;
74269;SDS011;62754;48.252;11.654;2023-02-28T00:20:58;4.13;;;1.98;;
74269;SDS011;62754;48.252;11.654;2023-02-28T00:23:24;5.30;;;2.88;;
74269;SDS011;62754;48.252;11.654;2023-02-28T00:25:51;5.45;;;2.63;;
74269;SDS011;62754;48.252;11.654;2023-02-28T00:28:17;4.65;;;2.63;;
74269;SDS011;62754;48.252;11.654;2023-02-28T00:30:43;4.60;;;2.60;;
74269;SDS011;62754;48.252;11.654;2023-02-28T00:33:09;5.70;;;2.58;;
74269;SDS011;62754;48.252;11.654;2023-02-28T00:35:35;4.75;;;2.58;;
74269;SDS011;62754;48.252;11.654;2023-02-28T00:38:01;4.72;;;2.90;;
74269;SDS011;62754;48.252;11.654;2023-02-28T00:40:27;4.63;;;2.53;;
74269;SDS011;62754;48.252;11.654;2023-02-28T00:42:53;4.22;;;2.33;;
74269;SDS011;62754;48.252;11.654;2023-02-28T00:45:18;5.22;;;2.88;;
74269;SDS011;62754;48.252;11.654;2023-02-28T00:47:44;5.18;;;2.63;;
74269;SDS011;62754;48.252;11.654;2023-02-28T00:50:10;5.32;;;2.92;;
74269;SDS011;62754;48.252;11.654;2023-02-28T00:52:36;5.97;;;2.75;;
74269;SDS011;62754;48.252;11.654;2023-02-28T00:55:02;6.13;;;2.35;;
74269;SDS011;62754;48.252;11.654;2023-02-28T00:57:27;5.25;;;2.50;;
74269;SDS011;62754;48.252;11.654;2023-02-28T00:59:53;5.13;;;2.85;;
74269;SDS011;62754;48.252;11.654;2023-02-28T01:02:19;4.57;;;2.88;;
74269;SDS011;62754;48.252;11.654;2023-02-28T01:04:46;5.38;;;2.78;;
74269;SDS011;62754;48.252;11.654;2023-02-28T01:07:12;5.85;;;2.80;;
74269;SDS011;62754;48.252;11.654;2023-02-28T01:09:38;4.40;;;2.70;;
74269;SDS011;62754;48.252;11.654;2023-02-28T01:12:03;5.03;;;2.65;;
74269;SDS011;62754;48.252;11.654;2023-02-28T01:14:29;5.05;;;2.30;;
74269;SDS011;62754;48.252;11.654;2023-02-28T01:16:55;3.60;;;2.35;;
74269;SDS011;62754;48.252;11.654;2023-02-28T01:19:21;5.97;;;2.70;;
74269;SDS011;62754;48.252;11.654;2023-02-28T01:21:47;5.65;;;2.83;;
74269;SDS011;62754;48.252;11.654;2023-02-28T01:24:12;5.85;;;3.00;;
74269;SDS011;62754;48.252;11.654;2023-02-28T01:26:38;4.88;;;2.35;;
74269;SDS011;62754;48.252;11.654;2023-02-28T01:29:04;4.88;;;2.72;;
74269;SDS011;62754;48.252;11.654;2023-02-28T01:31:30;6.88;;;3.00;;
74269;SDS011;62754;48.252;11.654;2023-02-28T01:33:55;6.05;;;2.70;;
74269;SDS011;62754;48.252;11.654;2023-02-28T01:36:22;4.25;;;2.45;;
74269;SDS011;62754;48.252;11.654;2023-02-28T01:38:49;7.05;;;3.10;;
74269;SDS011;62754;48.252;11.654;2023-02-28T01:41:26;5.45;;;2.60;;
74269;SDS011;62754;48.252;11.654;2023-02-28T01:46:25;6.55;;;2.78;;
74269;SDS011;62754;48.252;11.654;2023-02-28T01:48:56;8.63;;;2.88;;
74269;SDS011;62754;48.252;11.654;2023-02-28T01:51:44;5.78;;;2.75;;
74269;SDS011;62754;48.252;11.654;2023-02-28T01:54:14;5.18;;;2.78;;
74269;SDS011;62754;48.252;11.654;2023-02-28T01:56:44;5.05;;;2.30;;
74269;SDS011;62754;48.252;11.654;2023-02-28T01:59:19;5.85;;;2.72;;
74269;SDS011;62754;48.252;11.654;2023-02-28T02:01:49;5.68;;;2.67;;
74269;SDS011;62754;48.252;11.654;2023-02-28T02:04:15;5.75;;;2.75;;
74269;SDS011;62754;48.252;11.654;2023-02-28T02:06:42;4.63;;;2.75;;
74269;SDS011;62754;48.252;11.654;2023-02-28T02:09:11;5.68;;;2.75;;
74269;SDS011;62754;48.252;11.654;2023-02-28T02:11:37;5.97;;;2.95;;
74269;SDS011;62754;48.252;11.654;2023-02-28T02:26:14;5.30;;;3.05;;
74269;SDS011;62754;48.252;11.654;2023-02-28T02:31:29;6.07;;;3.03;;
74269;SDS011;62754;48.252;11.654;2023-02-28T02:36:37;6.15;;;3.13;;
74269;SDS011;62754;48.252;11.654;2023-02-28T02:41:49;4.88;;;2.63;;
74269;SDS011;62754;48.252;11.654;2023-02-28T02:46:47;5.13;;;2.88;;
74269;SDS011;62754;48.252;11.654;2023-02-28T02:49:17;5.60;;;3.20;;
74269;SDS011;62754;48.252;11.654;2023-02-28T02:51:48;5.78;;;3.13;;
74269;SDS011;62754;48.252;11.654;2023-02-28T02:54:18;5.97;;;3.20;;
74269;SDS011;62754;48.252;11.654;2023-02-28T02:56:48;5.90;;;2.97;;
74269;SDS011;62754;48.252;11.654;2023-02-28T02:59:18;5.65;;;2.92;;
74269;SDS011;62754;48.252;11.654;2023-02-28T03:01:56;6.18;;;3.20;;
74269;SDS011;62754;48.252;11.654;2023-02-28T03:04:25;5.68;;;2.72;;
74269;SDS011;62754;48.252;11.654;2023-02-28T03:06:56;5.85;;;3.25;;
74269;SDS011;62754;48.252;11.654;2023-02-28T03:09:22;7.15;;;2.95;;
74269;SDS011;62754;48.252;11.654;2023-02-28T03:11:48;7.15;;;3.50;;
74269;SDS011;62754;48.252;11.654;2023-02-28T03:27:53;8.52;;;3.63;;
74269;SDS011;62754;48.252;11.654;2023-02-28T03:33:34;8.23;;;4.18;;
74269;SDS011;62754;48.252;11.654;2023-02-28T03:36:06;6.88;;;3.78;;
74269;SDS011;62754;48.252;11.654;2023-02-28T03:38:41;6.47;;;3.58;;
74269;SDS011;62754;48.252;11.654;2023-02-28T03:41:17;6.30;;;3.45;;
74269;SDS011;62754;48.252;11.654;2023-02-28T03:43:49;7.30;;;3.47;;
74269;SDS011;62754;48.252;11.654;2023-02-28T03:46:19;8.90;;;4.05;;
74269;SDS011;62754;48.252;11.654;2023-02-28T03:48:57;8.73;;;3.95;;
74269;SDS011;62754;48.252;11.654;2023-02-28T03:51:30;8.02;;;4.00;;
74269;SDS011;62754;48.252;11.654;2023-02-28T03:53:58;6.95;;;3.58;;
74269;SDS011;62754;48.252;11.654;2023-02-28T03:56:34;7.68;;;4.07;;
74269;SDS011;62754;48.252;11.654;2023-02-28T03:59:09;7.15;;;3.70;;
74269;SDS011;62754;48.252;11.654;2023-02-28T04:01:43;8.43;;;4.13;;
74269;SDS011;62754;48.252;11.654;2023-02-28T04:04:11;8.40;;;4.05;;
74269;SDS011;62754;48.252;11.654;2023-02-28T04:06:38;8.00;;;4.13;;
74269;SDS011;62754;48.252;11.654;2023-02-28T04:09:04;7.95;;;3.78;;
74269;SDS011;62754;48.252;11.654;2023-02-28T04:11:41;7.93;;;3.72;;
74269;SDS011;62754;48.252;11.654;2023-02-28T04:14:09;8.80;;;4.22;;
74269;SDS011;62754;48.252;11.654;2023-02-28T04:16:37;7.88;;;3.85;;
74269;SDS011;62754;48.252;11.654;2023-02-28T04:19:05;8.00;;;3.90;;
74269;SDS011;62754;48.252;11.654;2023-02-28T04:24:02;8.90;;;3.97;;
74269;SDS011;62754;48.252;11.654;2023-02-28T04:26:32;8.88;;;4.25;;
74269;SDS011;62754;48.252;11.654;2023-02-28T04:28:59;9.13;;;4.03;;
74269;SDS011;62754;48.252;11.654;2023-02-28T04:31:26;9.43;;;4.25;;
74269;SDS011;62754;48.252;11.654;2023-02-28T04:33:52;7.50;;;4.63;;
74269;SDS011;62754;48.252;11.654;2023-02-28T04:36:17;8.65;;;4.45;;
74269;SDS011;62754;48.252;11.654;2023-02-28T04:38:44;7.57;;;4.03;;
74269;SDS011;62754;48.252;11.654;2023-02-28T04:41:10;8.75;;;4.30;;
74269;SDS011;62754;48.252;11.654;2023-02-28T04:43:37;8.88;;;4.55;;
74269;SDS011;62754;48.252;11.654;2023-02-28T04:46:03;11.43;;;5.43;;
74269;SDS011;62754;48.252;11.654;2023-02-28T04:48:31;7.20;;;4.13;;
74269;SDS011;62754;48.252;11.654;2023-02-28T04:51:01;9.65;;;4.53;;
74269;SDS011;62754;48.252;11.654;2023-02-28T04:53:28;9.18;;;4.88;;
74269;SDS011;62754;48.252;11.654;2023-02-28T04:55:55;8.63;;;4.43;;
74269;SDS011;62754;48.252;11.654;2023-02-28T04:58:21;8.20;;;4.40;;
74269;SDS011;62754;48.252;11.654;2023-02-28T05:00:47;9.10;;;4.72;;
74269;SDS011;62754;48.252;11.654;2023-02-28T05:03:13;6.85;;;4.55;;
74269;SDS011;62754;48.252;11.654;2023-02-28T05:05:38;10.82;;;4.80;;
74269;SDS011;62754;48.252;11.654;2023-02-28T05:08:04;7.57;;;4.38;;
74269;SDS011;62754;48.252;11.654;2023-02-28T05:10:30;8.73;;;5.05;;
74269;SDS011;62754;48.252;11.654;2023-02-28T05:12:56;9.27;;;4.85;;
74269;SDS011;62754;48.252;11.654;2023-02-28T05:15:22;8.30;;;4.90;;
74269;SDS011;62754;48.252;11.654;2023-02-28T05:17:47;9.50;;;4.65;;
74269;SDS011;62754;48.252;11.654;2023-02-28T05:20:13;8.45;;;5.00;;
74269;SDS011;62754;48.252;11.654;2023-02-28T05:22:39;9.95;;;4.60;;
74269;SDS011;62754;48.252;11.654;2023-02-28T05:25:06;8.85;;;5.22;;
74269;SDS011;62754;48.252;11.654;2023-02-28T05:27:34;10.80;;;5.13;;
74269;SDS011;62754;48.252;11.654;2023-02-28T05:29:59;10.73;;;5.13;;
74269;SDS011;62754;48.252;11.654;2023-02-28T05:32:25;9.95;;;5.40;;
74269;SDS011;62754;48.252;11.654;2023-02-28T05:34:51;9.50;;;5.32;;
74269;SDS011;62754;48.252;11.654;2023-02-28T05:37:17;9.45;;;5.50;;
74269;SDS011;62754;48.252;11.654;2023-02-28T05:39:42;11.45;;;5.75;;
74269;SDS011;62754;48.252;11.654;2023-02-28T05:42:08;9.15;;;4.80;;
74269;SDS011;62754;48.252;11.654;2023-02-28T05:44:34;10.77;;;5.60;;
74269;SDS011;62754;48.252;11.654;2023-02-28T05:47:00;8.15;;;4.95;;
74269;SDS011;62754;48.252;11.654;2023-02-28T05:49:26;8.77;;;5.28;;
74269;SDS011;62754;48.252;11.654;2023-02-28T05:51:52;10.27;;;5.38;;
74269;SDS011;62754;48.252;11.654;2023-02-28T05:54:18;11.00;;;5.93;;
74269;SDS011;62754;48.252;11.654;2023-02-28T05:56:43;9.63;;;5.32;;
74269;SDS011;62754;48.252;11.654;2023-02-28T05:59:09;10.65;;;5.15;;
74269;SDS011;62754;48.252;11.654;2023-02-28T06:01:45;10.02;;;5.03;;
74269;SDS011;62754;48.252;11.654;2023-02-28T06:04:11;10.95;;;5.15;;
74269;SDS011;62754;48.252;11.654;2023-02-28T06:06:37;10.25;;;5.75;;
74269;SDS011;62754;48.252;11.654;2023-02-28T06:09:03;10.55;;;5.75;;
74269;SDS011;62754;48.252;11.654;2023-02-28T06:11:29;8.68;;;4.82;;
74269;SDS011;62754;48.252;11.654;2023-02-28T06:13:56;9.90;;;5.20;;
74269;SDS011;62754;48.252;11.654;2023-02-28T06:16:22;9.00;;;4.88;;
74269;SDS011;62754;48.252;11.654;2023-02-28T06:18:49;10.95;;;5.68;;
74269;SDS011;62754;48.252;11.654;2023-02-28T06:21:15;11.00;;;5.43;;
74269;SDS011;62754;48.252;11.654;2023-02-28T06:23:41;11.50;;;5.38;;
74269;SDS011;62754;48.252;11.654;2023-02-28T06:26:07;9.30;;;5.45;;
74269;SDS011;62754;48.252;11.654;2023-02-28T06:28:32;11.60;;;6.03;;
74269;SDS011;62754;48.252;11.654;2023-02-28T06:30:58;13.77;;;6.38;;
74269;SDS011;62754;48.252;11.654;2023-02-28T06:33:24;12.15;;;6.70;;
74269;SDS011;62754;48.252;11.654;2023-02-28T06:35:50;11.98;;;6.68;;
74269;SDS011;62754;48.252;11.654;2023-02-28T06:38:16;10.68;;;5.72;;
74269;SDS011;62754;48.252;11.654;2023-02-28T06:40:42;12.73;;;6.45;;
74269;SDS011;62754;48.252;11.654;2023-02-28T06:43:08;11.82;;;6.13;;
74269;SDS011;62754;48.252;11.654;2023-02-28T06:45:33;11.23;;;6.82;;
74269;SDS011;62754;48.252;11.654;2023-02-28T06:47:59;11.32;;;6.63;;
74269;SDS011;62754;48.252;11.654;2023-02-28T06:50:25;12.93;;;5.78;;
74269;SDS011;62754;48.252;11.654;2023-02-28T06:52:51;11.32;;;6.55;;
74269;SDS011;62754;48.252;11.654;2023-02-28T06:55:16;11.52;;;5.63;;
74269;SDS011;62754;48.252;11.654;2023-02-28T06:57:42;12.02;;;6.18;;
74269;SDS011;62754;48.252;11.654;2023-02-28T07:00:08;12.10;;;6.63;;
74269;SDS011;62754;48.252;11.654;2023-02-28T07:02:35;12.43;;;5.82;;
74269;SDS011;62754;48.252;11.654;2023-02-28T07:05:01;10.98;;;6.35;;
74269;SDS011;62754;48.252;11.654;2023-02-28T07:07:27;10.13;;;6.07;;
74269;SDS011;62754;48.252;11.654;2023-02-28T07:09:53;10.82;;;6.43;;
74269;SDS011;62754;48.252;11.654;2023-02-28T07:12:19;11.85;;;5.95;;
74269;SDS011;62754;48.252;11.654;2023-02-28T07:14:44;13.23;;;6.03;;
74269;SDS011;62754;48.252;11.654;2023-02-28T07:17:10;13.68;;;7.60;;
74269;SDS011;62754;48.252;11.654;2023-02-28T07:19:36;12.35;;;6.18;;
74269;SDS011;62754;48.252;11.654;2023-02-28T07:22:03;11.73;;;7.57;;
74269;SDS011;62754;48.252;11.654;2023-02-28T07:24:29;13.95;;;6.55;;
74269;SDS011;62754;48.252;11.654;2023-02-28T07:26:55;13.75;;;7.03;;
74269;SDS011;62754;48.252;11.654;2023-02-28T07:29:21;11.07;;;7.05;;
74269;SDS011;62754;48.252;11.654;2023-02-28T07:31:47;11.10;;;6.78;;
74269;SDS011;62754;48.252;11.654;2023-02-28T07:34:13;11.18;;;5.93;;
74269;SDS011;62754;48.252;11.654;2023-02-28T07:36:39;15.18;;;6.95;;
74269;SDS011;62754;48.252;11.654;2023-02-28T07:39:05;12.00;;;6.63;;
74269;SDS011;62754;48.252;11.654;2023-02-28T07:41:31;12.82;;;6.93;;
74269;SDS011;62754;48.252;11.654;2023-02-28T07:43:56;13.40;;;8.15;;
74269;SDS011;62754;48.252;11.654;2023-02-28T07:46:22;13.57;;;7.38;;
74269;SDS011;62754;48.252;11.654;2023-02-28T07:48:48;11.52;;;6.38;;
74269;SDS011;62754;48.252;11.654;2023-02-28T07:51:14;13.43;;;7.20;;
74269;SDS011;62754;48.252;11.654;2023-02-28T07:53:39;12.88;;;6.93;;
74269;SDS011;62754;48.252;11.654;2023-02-28T07:56:05;12.85;;;7.40;;
74269;SDS011;62754;48.252;11.654;2023-02-28T07:58:31;12.75;;;8.00;;
74269;SDS011;62754;48.252;11.654;2023-02-28T08:00:57;11.65;;;7.53;;
74269;SDS011;62754;48.252;11.654;2023-02-28T08:03:31;14.73;;;7.60;;
74269;SDS011;62754;48.252;11.654;2023-02-28T08:05:56;14.88;;;7.95;;
74269;SDS011;62754;48.252;11.654;2023-02-28T08:08:22;12.73;;;7.53;;
74269;SDS011;62754;48.252;11.654;2023-02-28T08:10:48;13.88;;;7.25;;
74269;SDS011;62754;48.252;11.654;2023-02-28T08:13:14;13.35;;;7.68;;
74269;SDS011;62754;48.252;11.654;2023-02-28T08:15:40;15.52;;;7.82;;
74269;SDS011;62754;48.252;11.654;2023-02-28T08:20:32;16.30;;;8.00;;
74269;SDS011;62754;48.252;11.654;2023-02-28T08:22:58;15.45;;;7.53;;
74269;SDS011;62754;48.252;11.654;2023-02-28T08:25:24;12.95;;;6.90;;
74269;SDS011;62754;48.252;11.654;2023-02-28T08:27:50;13.20;;;7.35;;
74269;SDS011;62754;48.252;11.654;2023-02-28T08:30:17;13.50;;;7.68;;
74269;SDS011;62754;48.252;11.654;2023-02-28T08:32:43;16.60;;;7.80;;
74269;SDS011;62754;48.252;11.654;2023-02-28T08:35:09;17.42;;;9.48;;
74269;SDS011;62754;48.252;11.654;2023-02-28T08:37:35;14.38;;;8.38;;
74269;SDS011;62754;48.252;11.654;2023-02-28T08:40:01;14.48;;;8.90;;
74269;SDS011;62754;48.252;11.654;2023-02-28T08:42:27;13.10;;;7.90;;
74269;SDS011;62754;48.252;11.654;2023-02-28T08:44:52;14.75;;;7.85;;
74269;SDS011;62754;48.252;11.654;2023-02-28T08:47:18;15.70;;;8.25;;
74269;SDS011;62754;48.252;11.654;2023-02-28T08:49:44;14.02;;;7.28;;
74269;SDS011;62754;48.252;11.654;2023-02-28T08:52:10;15.02;;;8.70;;
74269;SDS011;62754;48.252;11.654;2023-02-28T08:54:36;12.38;;;8.10;;
74269;SDS011;62754;48.252;11.654;2023-02-28T08:57:02;12.70;;;8.30;;
74269;SDS011;62754;48.252;11.654;2023-02-28T08:59:28;16.38;;;8.52;;
74269;SDS011;62754;48.252;11.654;2023-02-28T09:01:54;15.68;;;8.80;;
74269;SDS011;62754;48.252;11.654;2023-02-28T09:04:20;12.35;;;8.00;;
74269;SDS011;62754;48.252;11.654;2023-02-28T09:06:46;13.10;;;7.85;;
74269;SDS011;62754;48.252;11.654;2023-02-28T09:09:12;11.90;;;7.43;;
74269;SDS011;62754;48.252;11.654;2023-02-28T09:11:38;16.23;;;8.65;;
74269;SDS011;62754;48.252;11.654;2023-02-28T09:14:03;14.70;;;10.52;;
74269;SDS011;62754;48.252;11.654;2023-02-28T09:16:30;12.65;;;8.48;;
74269;SDS011;62754;48.252;11.654;2023-02-28T09:18:57;12.02;;;7.93;;
74269;SDS011;62754;48.252;11.654;2023-02-28T09:21:23;12.25;;;7.80;;
74269;SDS011;62754;48.252;11.654;2023-02-28T09:23:51;12.30;;;7.45;;
74269;SDS011;62754;48.252;11.654;2023-02-28T09:26:18;12.77;;;8.32;;
74269;SDS011;62754;48.252;11.654;2023-02-28T09:28:47;14.52;;;8.52;;
74269;SDS011;62754;48.252;11.654;2023-02-28T09:31:21;17.40;;;8.32;;
74269;SDS011;62754;48.252;11.654;2023-02-28T09:33:49;12.85;;;8.45;;
74269;SDS011;62754;48.252;11.654;2023-02-28T09:36:17;13.07;;;7.57;;
74269;SDS011;62754;48.252;11.654;2023-02-28T09:38:44;13.75;;;8.00;;
74269;SDS011;62754;48.252;11.654;2023-02-28T09:41:12;13.55;;;8.35;;
74269;SDS011;62754;48.252;11.654;2023-02-28T09:43:40;14.05;;;8.95;;
74269;SDS011;62754;48.252;11.654;2023-02-28T09:49:04;14.15;;;7.95;;
74269;SDS011;62754;48.252;11.654;2023-02-28T09:51:34;14.65;;;9.52;;
74269;SDS011;62754;48.252;11.654;2023-02-28T09:54:05;15.45;;;8.38;;
74269;SDS011;62754;48.252;11.654;2023-02-28T09:56:36;17.00;;;7.70;;
74269;SDS011;62754;48.252;11.654;2023-02-28T10:04:42;12.45;;;7.72;;
74269;SDS011;62754;48.252;11.654;2023-02-28T10:07:21;13.63;;;7.90;;
74269;SDS011;62754;48.252;11.654;2023-02-28T10:10:02;13.15;;;7.68;;
74269;SDS011;62754;48.252;11.654;2023-02-28T10:12:39;12.20;;;7.55;;
74269;SDS011;62754;48.252;11.654;2023-02-28T10:15:13;13.57;;;7.47;;
74269;SDS011;62754;48.252;11.654;2023-02-28T10:17:41;13.23;;;7.90;;
74269;SDS011;62754;48.252;11.654;2023-02-28T10:20:12;12.90;;;8.07;;
74269;SDS011;62754;48.252;11.654;2023-02-28T10:26:28;17.48;;;11.18;;
74269;SDS011;62754;48.252;11.654;2023-02-28T10:28:38;16.27;;;9.02;;
74269;SDS011;62754;48.252;11.654;2023-02-28T10:31:04;13.45;;;8.20;;
74269;SDS011;62754;48.252;11.654;2023-02-28T10:33:31;12.13;;;7.72;;
74269;SDS011;62754;48.252;11.654;2023-02-28T10:36:00;12.38;;;7.32;;
74269;SDS011;62754;48.252;11.654;2023-02-28T10:38:28;10.32;;;6.82;;
74269;SDS011;62754;48.252;11.654;2023-02-28T10:41:05;12.48;;;6.88;;
74269;SDS011;62754;48.252;11.654;2023-02-28T10:43:51;13.85;;;7.65;;
74269;SDS011;62754;48.252;11.654;2023-02-28T10:46:18;12.40;;;8.15;;
74269;SDS011;62754;48.252;11.654;2023-02-28T10:48:47;12.75;;;8.38;;
74269;SDS011;62754;48.252;11.654;2023-02-28T10:51:22;12.05;;;7.82;;
74269;SDS011;62754;48.252;11.654;2023-02-28T10:53:51;11.98;;;7.57;;
74269;SDS011;62754;48.252;11.654;2023-02-28T11:03:46;10.43;;;7.00;;
74269;SDS011;62754;48.252;11.654;2023-02-28T11:06:20;12.50;;;6.78;;
74269;SDS011;62754;48.252;11.654;2023-02-28T11:08:50;10.85;;;7.30;;
74269;SDS011;62754;48.252;11.654;2023-02-28T11:11:16;11.18;;;6.65;;
74269;SDS011;62754;48.252;11.654;2023-02-28T11:13:44;11.68;;;7.18;;
74269;SDS011;62754;48.252;11.654;2023-02-28T11:16:12;11.52;;;7.43;;
74269;SDS011;62754;48.252;11.654;2023-02-28T11:23:42;11.32;;;7.18;;
74269;SDS011;62754;48.252;11.654;2023-02-28T11:26:08;12.20;;;7.25;;
74269;SDS011;62754;48.252;11.654;2023-02-28T11:28:35;11.73;;;6.95;;
74269;SDS011;62754;48.252;11.654;2023-02-28T11:36:11;9.23;;;5.88;;
74269;SDS011;62754;48.252;11.654;2023-02-28T11:38:40;9.82;;;6.65;;
74269;SDS011;62754;48.252;11.654;2023-02-28T11:57:33;10.65;;;6.72;;
74269;SDS011;62754;48.252;11.654;2023-02-28T12:00:27;10.82;;;7.30;;
74269;SDS011;62754;48.252;11.654;2023-02-28T12:03:23;11.20;;;7.00;;
74269;SDS011;62754;48.252;11.654;2023-02-28T12:14:44;11.93;;;7.07;;
74269;SDS011;62754;48.252;11.654;2023-02-28T12:17:40;12.18;;;7.75;;
74269;SDS011;62754;48.252;11.654;2023-02-28T12:23:17;11.50;;;7.53;;
74269;SDS011;62754;48.252;11.654;2023-02-28T12:26:02;11.68;;;7.68;;
74269;SDS011;62754;48.252;11.654;2023-02-28T12:28:34;12.35;;;7.43;;
74269;SDS011;62754;48.252;11.654;2023-02-28T12:31:24;9.02;;;6.70;;
74269;SDS011;62754;48.252;11.654;2023-02-28T12:33:59;10.77;;;7.05;;
74269;SDS011;62754;48.252;11.654;2023-02-28T12:36:30;8.90;;;6.57;;
74269;SDS011;62754;48.252;11.654;2023-02-28T12:41:39;11.00;;;7.18;;
74269;SDS011;62754;48.252;11.654;2023-02-28T12:44:09;10.35;;;6.82;;
74269;SDS011;62754;48.252;11.654;2023-02-28T12:46:41;11.20;;;7.85;;
74269;SDS011;62754;48.252;11.654;2023-02-28T12:49:16;12.18;;;7.85;;
74269;SDS011;62754;48.252;11.654;2023-02-28T12:51:46;11.32;;;7.78;;
74269;SDS011;62754;48.252;11.654;2023-02-28T12:54:16;12.02;;;7.78;;
74269;SDS011;62754;48.252;11.654;2023-02-28T12:56:53;12.20;;;7.07;;
74269;SDS011;62754;48.252;11.654;2023-02-28T12:59:41;10.95;;;7.65;;
74269;SDS011;62754;48.252;11.654;2023-02-28T13:10:48;9.55;;;7.45;;
74269;SDS011;62754;48.252;11.654;2023-02-28T13:13:16;10.57;;;6.97;;
74269;SDS011;62754;48.252;11.654;2023-02-28T13:18:42;9.57;;;7.28;;
74269;SDS011;62754;48.252;11.654;2023-02-28T13:21:21;10.90;;;7.35;;
74269;SDS011;62754;48.252;11.654;2023-02-28T13:26:20;9.75;;;6.80;;
74269;SDS011;62754;48.252;11.654;2023-02-28T13:31:18;31.58;;;18.17;;
74269;SDS011;62754;48.252;11.654;2023-02-28T13:51:45;12.23;;;8.07;;
74269;SDS011;62754;48.252;11.654;2023-02-28T14:05:17;12.90;;;7.70;;
74269;SDS011;62754;48.252;11.654;2023-02-28T14:07:45;10.98;;;7.18;;
74269;SDS011;62754;48.252;11.654;2023-02-28T14:10:48;10.18;;;7.72;;
74269;SDS011;62754;48.252;11.654;2023-02-28T14:16:04;11.18;;;7.75;;
74269;SDS011;62754;48.252;11.654;2023-02-28T14:18:32;10.57;;;7.63;;
74269;SDS011;62754;48.252;11.654;2023-02-28T14:37:45;10.20;;;8.30;;
74269;SDS011;62754;48.252;11.654;2023-02-28T14:40:16;11.80;;;7.93;;
74269;SDS011;62754;48.252;11.654;2023-02-28T14:42:56;10.98;;;7.90;;
74269;SDS011;62754;48.252;11.654;2023-02-28T14:45:23;12.48;;;8.23;;
74269;SDS011;62754;48.252;11.654;2023-02-28T14:47:55;10.40;;;8.05;;
74269;SDS011;62754;48.252;11.654;2023-02-28T14:50:32;11.38;;;8.35;;
74269;SDS011;62754;48.252;11.654;2023-02-28T14:53:01;13.45;;;8.15;;
74269;SDS011;62754;48.252;11.654;2023-02-28T14:55:28;12.27;;;7.72;;
74269;SDS011;62754;48.252;11.654;2023-02-28T14:58:00;12.25;;;7.55;;
74269;SDS011;62754;48.252;11.654;2023-02-28T15:00:31;10.02;;;7.18;;
74269;SDS011;62754;48.252;11.654;2023-02-28T15:03:00;11.68;;;7.75;;
74269;SDS011;62754;48.252;11.654;2023-02-28T15:05:37;10.00;;;6.82;;
74269;SDS011;62754;48.252;11.654;2023-02-28T15:08:13;10.85;;;7.50;;
74269;SDS011;62754;48.252;11.654;2023-02-28T15:10:42;10.65;;;7.93;;
74269;SDS011;62754;48.252;11.654;2023-02-28T15:13:12;11.70;;;7.68;;
74269;SDS011;62754;48.252;11.654;2023-02-28T15:18:11;8.93;;;6.40;;
74269;SDS011;62754;48.252;11.654;2023-02-28T15:20:42;11.23;;;7.35;;
74269;SDS011;62754;48.252;11.654;2023-02-28T15:23:10;9.27;;;6.43;;
74269;SDS011;62754;48.252;11.654;2023-02-28T15:25:36;10.00;;;6.75;;
74269;SDS011;62754;48.252;11.654;2023-02-28T15:28:02;11.68;;;7.38;;
74269;SDS011;62754;48.252;11.654;2023-02-28T15:30:29;10.93;;;6.90;;
74269;SDS011;62754;48.252;11.654;2023-02-28T15:37:57;11.75;;;7.55;;
74269;SDS011;62754;48.252;11.654;2023-02-28T15:40:31;10.82;;;7.43;;
74269;SDS011;62754;48.252;11.654;2023-02-28T15:45:34;11.32;;;8.18;;
74269;SDS011;62754;48.252;11.654;2023-02-28T15:48:01;12.32;;;7.88;;
74269;SDS011;62754;48.252;11.654;2023-02-28T15:50:27;11.38;;;7.43;;
74269;SDS011;62754;48.252;11.654;2023-02-28T15:52:53;10.98;;;7.03;;
74269;SDS011;62754;48.252;11.654;2023-02-28T15:55:20;12.90;;;7.25;;
74269;SDS011;62754;48.252;11.654;2023-02-28T15:57:49;12.13;;;7.90;;
74269;SDS011;62754;48.252;11.654;2023-02-28T16:00:21;13.38;;;7.57;;
74269;SDS011;62754;48.252;11.654;2023-02-28T16:02:49;13.30;;;8.23;;
74269;SDS011;62754;48.252;11.654;2023-02-28T16:05:23;14.25;;;10.20;;
74269;SDS011;62754;48.252;11.654;2023-02-28T16:07:50;14.57;;;8.55;;
74269;SDS011;62754;48.252;11.654;2023-02-28T16:10:16;11.00;;;7.72;;
74269;SDS011;62754;48.252;11.654;2023-02-28T16:12:42;13.18;;;7.28;;
74269;SDS011;62754;48.252;11.654;2023-02-28T16:15:14;11.07;;;7.07;;
74269;SDS011;62754;48.252;11.654;2023-02-28T16:17:52;14.02;;;8.20;;
74269;SDS011;62754;48.252;11.654;2023-02-28T16:20:20;11.13;;;7.22;;
74269;SDS011;62754;48.252;11.654;2023-02-28T16:22:47;12.40;;;7.30;;
74269;SDS011;62754;48.252;11.654;2023-02-28T16:25:14;12.07;;;7.55;;
74269;SDS011;62754;48.252;11.654;2023-02-28T16:27:41;12.07;;;7.57;;
74269;SDS011;62754;48.252;11.654;2023-02-28T16:30:21;12.10;;;7.47;;
74269;SDS011;62754;48.252;11.654;2023-02-28T16:32:49;13.10;;;8.02;;
74269;SDS011;62754;48.252;11.654;2023-02-28T16:37:42;12.55;;;7.10;;
74269;SDS011;62754;48.252;11.654;2023-02-28T16:40:21;12.45;;;6.95;;
74269;SDS011;62754;48.252;11.654;2023-02-28T16:42:50;12.98;;;7.15;;
74269;SDS011;62754;48.252;11.654;2023-02-28T16:45:18;12.90;;;7.63;;
74269;SDS011;62754;48.252;11.654;2023-02-28T16:47:47;13.05;;;7.72;;
74269;SDS011;62754;48.252;11.654;2023-02-28T16:50:20;16.15;;;7.75;;
74269;SDS011;62754;48.252;11.654;2023-02-28T16:52:47;13.70;;;8.05;;
74269;SDS011;62754;48.252;11.654;2023-02-28T16:55:14;14.02;;;8.50;;
74269;SDS011;62754;48.252;11.654;2023-02-28T16:57:39;14.70;;;10.00;;
74269;SDS011;62754;48.252;11.654;2023-02-28T17:00:07;18.05;;;11.20;;
74269;SDS011;62754;48.252;11.654;2023-02-28T17:02:36;21.30;;;12.23;;
74269;SDS011;62754;48.252;11.654;2023-02-28T17:05:02;20.45;;;12.65;;
74269;SDS011;62754;48.252;11.654;2023-02-28T17:07:28;18.67;;;12.00;;
74269;SDS011;62754;48.252;11.654;2023-02-28T17:09:54;21.17;;;13.23;;
74269;SDS011;62754;48.252;11.654;2023-02-28T17:12:19;22.77;;;12.70;;
74269;SDS011;62754;48.252;11.654;2023-02-28T17:14:45;19.98;;;12.93;;
74269;SDS011;62754;48.252;11.654;2023-02-28T17:17:16;20.92;;;12.15;;
74269;SDS011;62754;48.252;11.654;2023-02-28T17:19:43;17.25;;;10.93;;
74269;SDS011;62754;48.252;11.654;2023-02-28T17:22:09;18.08;;;10.80;;
74269;SDS011;62754;48.252;11.654;2023-02-28T17:24:35;16.33;;;11.10;;
74269;SDS011;62754;48.252;11.654;2023-02-28T17:27:01;19.25;;;10.90;;
74269;SDS011;62754;48.252;11.654;2023-02-28T17:29:27;18.98;;;11.63;;
74269;SDS011;62754;48.252;11.654;2023-02-28T17:31:53;21.40;;;11.00;;
74269;SDS011;62754;48.252;11.654;2023-02-28T17:34:19;15.10;;;9.85;;
74269;SDS011;62754;48.252;11.654;2023-02-28T17:36:45;16.33;;;9.95;;
74269;SDS011;62754;48.252;11.654;2023-02-28T17:39:13;17.08;;;9.43;;